createdAt,value
2017-04-05T00:03:00.598Z,1024.2
2017-04-05T00:09:16.772Z,1024.2
2017-04-05T00:33:17.320Z,1024.1
2017-04-05T00:34:20.089Z,1024.2
2017-04-05T00:35:22.298Z,1024.2
2017-04-05T00:37:28.057Z,1024.2
2017-04-05T00:38:30.650Z,1024.1
2017-04-05T00:39:32.992Z,1024.1
2017-04-05T00:40:35.832Z,1024.1
2017-04-05T00:41:38.203Z,1024.1
2017-04-05T00:42:41.043Z,1024.1
2017-04-05T00:43:44.193Z,1024
2017-04-05T00:44:46.534Z,1024.1
2017-04-05T00:45:48.874Z,1024.1
2017-04-05T00:46:51.713Z,1024.1
2017-04-05T00:47:54.553Z,1024.1
2017-04-05T00:48:57.192Z,1024.1
2017-04-05T00:49:59.528Z,1024.1
2017-04-05T00:51:02.235Z,1024.1
2017-04-05T00:52:05.078Z,1024.1
2017-04-05T00:53:07.790Z,1024.1
2017-04-05T00:54:10.491Z,1024.1
2017-04-05T00:55:12.834Z,1024.1
2017-04-05T00:57:18.092Z,1024.1
2017-04-05T00:58:20.941Z,1024
2017-04-05T00:59:23.530Z,1024
2017-04-05T01:02:31.552Z,1024
2017-04-05T01:03:33.894Z,1024
2017-04-05T01:04:36.742Z,1024
2017-04-05T01:05:39.082Z,1024
2017-04-05T01:06:41.936Z,1023.9
2017-04-05T01:07:44.682Z,1023.9
2017-04-05T01:08:47.020Z,1023.9
2017-04-05T01:09:49.870Z,1023.9
2017-04-05T01:10:52.712Z,1023.8
2017-04-05T01:11:55.420Z,1023.9
2017-04-05T01:14:00.927Z,1023.8
2017-04-05T01:15:03.268Z,1023.8
2017-04-05T01:16:05.707Z,1023.8
2017-04-05T01:17:08.474Z,1023.7
2017-04-05T01:18:10.882Z,1023.7
2017-04-05T01:19:13.982Z,1023.7
2017-04-05T01:20:16.194Z,1023.7
2017-04-05T01:21:19.035Z,1023.8
2017-04-05T01:22:21.882Z,1023.7
2017-04-05T01:23:24.226Z,1023.8
2017-04-05T01:24:27.325Z,1023.7
2017-04-05T01:25:29.723Z,1023.7
2017-04-05T01:26:32.068Z,1023.7
2017-04-05T01:27:34.917Z,1023.7
2017-04-05T01:28:37.623Z,1023.7
2017-04-05T01:29:40.211Z,1023.7
2017-04-05T01:30:43.061Z,1023.7
2017-04-05T01:31:45.466Z,1023.7
2017-04-05T01:32:48.346Z,1023.7
2017-04-05T01:33:50.686Z,1023.8
2017-04-05T01:34:53.782Z,1023.8
2017-04-05T01:35:56.127Z,1023.7
2017-04-05T01:36:58.838Z,1023.7
2017-04-05T01:38:01.183Z,1023.7
2017-04-05T01:39:04.026Z,1023.7
2017-04-05T01:40:07.122Z,1023.7
2017-04-05T01:41:09.327Z,1023.7
2017-04-05T01:42:12.170Z,1023.7
2017-04-05T01:43:14.511Z,1023.7
2017-04-05T01:44:17.356Z,1023.7
2017-04-05T01:45:20.051Z,1023.6
2017-04-05T01:47:25.302Z,1023.7
2017-04-05T01:48:27.646Z,1023.7
2017-04-05T01:50:33.207Z,1023.6
2017-04-05T01:51:35.553Z,1023.6
2017-04-05T01:52:38.392Z,1023.6
2017-04-05T01:54:43.637Z,1023.6
2017-04-05T01:55:46.733Z,1023.6
2017-04-05T01:56:49.075Z,1023.6
2017-04-05T01:58:54.191Z,1023.6
2017-04-05T01:59:57.034Z,1023.6
2017-04-05T02:00:59.626Z,1023.6
2017-04-05T02:02:01.971Z,1023.6
2017-04-05T02:03:04.817Z,1023.7
2017-04-05T02:04:07.667Z,1023.6
2017-04-05T02:05:09.877Z,1023.7
2017-04-05T02:06:12.971Z,1023.6
2017-04-05T02:07:15.315Z,1023.6
2017-04-05T02:08:18.161Z,1023.6
2017-04-05T02:09:20.507Z,1023.6
2017-04-05T02:10:23.365Z,1023.6
2017-04-05T02:12:28.869Z,1023.5
2017-04-05T02:14:34.124Z,1023.5
2017-04-05T02:15:36.328Z,1023.4
2017-04-05T02:16:39.171Z,1023.5
2017-04-05T02:17:42.267Z,1023.4
2017-04-05T02:18:44.605Z,1023.4
2017-04-05T02:19:46.949Z,1023.5
2017-04-05T02:20:49.793Z,1023.4
2017-04-05T02:21:52.507Z,1023.5
2017-04-05T02:22:55.100Z,1023.4
2017-04-05T02:23:57.947Z,1023.5
2017-04-05T02:25:00.290Z,1023.5
2017-04-05T02:26:03.001Z,1023.4
2017-04-05T02:27:05.847Z,1023.4
2017-04-05T02:28:08.438Z,1023.4
2017-04-05T02:29:10.776Z,1023.5
2017-04-05T02:30:13.619Z,1023.5
2017-04-05T02:31:15.962Z,1023.4
2017-04-05T02:32:18.803Z,1023.4
2017-04-05T02:33:21.903Z,1023.4
2017-04-05T02:34:24.241Z,1023.4
2017-04-05T02:35:26.586Z,1023.4
2017-04-05T02:36:29.429Z,1023.4
2017-04-05T02:37:32.304Z,1023.4
2017-04-05T02:38:34.898Z,1023.4
2017-04-05T02:39:37.235Z,1023.4
2017-04-05T02:40:40.082Z,1023.4
2017-04-05T02:41:42.423Z,1023.4
2017-04-05T02:42:45.274Z,1023.4
2017-04-05T02:43:48.367Z,1023.4
2017-04-05T02:44:50.703Z,1023.4
2017-04-05T02:45:53.418Z,1023.3
2017-04-05T03:10:56.881Z,1023.3
2017-04-05T03:14:04.590Z,1023.3
2017-04-05T03:15:06.925Z,1023.2
2017-04-05T03:16:10.017Z,1023.2
2017-04-05T03:19:17.527Z,1023.3
2017-04-05T03:21:23.027Z,1023.3
2017-04-05T03:22:25.736Z,1023.2
2017-04-05T03:23:28.077Z,1023.3
2017-04-05T03:24:30.915Z,1023.3
2017-04-05T03:25:33.300Z,1023.3
2017-04-05T03:26:36.392Z,1023.3
2017-04-05T03:28:41.635Z,1023.3
2017-04-05T03:29:43.970Z,1023.3
2017-04-05T03:30:46.809Z,1023.2
2017-04-05T03:31:49.397Z,1023.2
2017-04-05T03:32:52.099Z,1023.2
2017-04-05T03:33:54.430Z,1023.2
2017-04-05T03:34:57.275Z,1023.2
2017-04-05T03:36:00.114Z,1023.2
2017-04-05T03:38:05.609Z,1023.3
2017-04-05T03:39:07.675Z,1023.2
2017-04-05T03:40:10.515Z,1023.3
2017-04-05T03:41:12.847Z,1023.2
2017-04-05T03:42:15.689Z,1023.3
2017-04-05T03:43:18.777Z,1023.2
2017-04-05T03:44:21.120Z,1023.2
2017-04-05T03:45:23.452Z,1023.2
2017-04-05T03:46:26.289Z,1023.2
2017-04-05T03:47:28.990Z,1023.3
2017-04-05T03:48:31.574Z,1023.2
2017-04-05T03:49:33.909Z,1023.3
2017-04-05T03:50:36.749Z,1023.2
2017-04-05T03:51:39.584Z,1023.3
2017-04-05T03:52:42.153Z,1023.2
2017-04-05T03:53:44.738Z,1023.2
2017-04-05T03:55:49.852Z,1023.3
2017-04-05T03:56:52.739Z,1023.3
2017-04-05T03:57:55.447Z,1023.2
2017-04-05T03:58:57.902Z,1023.2
2017-04-05T04:00:00.607Z,1023.2
2017-04-05T04:01:02.942Z,1023.2
2017-04-05T04:02:05.847Z,1023.2
2017-04-05T04:03:08.182Z,1023.1
2017-04-05T04:04:11.278Z,1023.1
2017-04-05T04:05:13.609Z,1023.1
2017-04-05T04:06:16.452Z,1023.2
2017-04-05T04:07:18.784Z,1023.2
2017-04-05T04:08:21.616Z,1023.2
2017-04-05T04:09:24.200Z,1023.2
2017-04-05T04:10:26.601Z,1023.1
2017-04-05T04:11:29.499Z,1023.1
2017-04-05T04:12:31.839Z,1023.1
2017-04-05T04:13:34.682Z,1023.1
2017-04-05T04:14:37.774Z,1023.1
2017-04-05T04:15:40.108Z,1023
2017-04-05T04:16:42.810Z,1023.1
2017-04-05T04:17:45.151Z,1023
2017-04-05T04:18:47.987Z,1023
2017-04-05T04:19:50.571Z,1023
2017-04-05T04:21:55.861Z,1023.1
2017-04-05T04:22:58.195Z,1023.1
2017-04-05T04:24:01.038Z,1023.1
2017-04-05T04:25:04.129Z,1023.1
2017-04-05T04:27:08.872Z,1023.1
2017-04-05T04:28:11.760Z,1023.1
2017-04-05T04:29:14.095Z,1023.2
2017-04-05T04:30:17.184Z,1023.1
2017-04-05T04:31:19.517Z,1023.1
2017-04-05T04:32:21.854Z,1023.1
2017-04-05T04:33:24.694Z,1023.1
2017-04-05T04:36:33.099Z,1023.1
2017-04-05T04:37:35.432Z,1023.1
2017-04-05T04:38:37.772Z,1023.1
2017-04-05T04:39:40.613Z,1023.1
2017-04-05T04:40:42.944Z,1023.1
2017-04-05T04:41:46.031Z,1023.1
2017-04-05T04:42:48.368Z,1023.1
2017-04-05T04:43:51.199Z,1023.1
2017-04-05T04:44:53.533Z,1023.1
2017-04-05T04:45:56.373Z,1023.1
2017-04-05T04:46:58.961Z,1023.1
2017-04-05T04:48:01.299Z,1023.1
2017-04-05T04:49:04.142Z,1023
2017-04-05T04:50:06.977Z,1023.1
2017-04-05T04:51:09.177Z,1023
2017-04-05T04:52:12.268Z,1023
2017-04-05T04:53:14.474Z,1023.1
2017-04-05T04:54:17.381Z,1023.1
2017-04-05T04:55:19.718Z,1023.1
2017-04-05T04:56:22.555Z,1023
2017-04-05T04:57:25.513Z,1023.1
2017-04-05T04:58:27.846Z,1023.1
2017-04-05T04:59:30.687Z,1023
2017-04-05T05:00:33.023Z,1023.1
2017-04-05T05:01:35.859Z,1023.1
2017-04-05T05:02:38.503Z,1023.1
2017-04-05T05:03:40.844Z,1023.1
2017-04-05T05:04:43.557Z,1023.1
2017-04-05T05:05:46.397Z,1023.1
2017-04-05T05:06:48.742Z,1023.1
2017-04-05T05:07:51.833Z,1023.1
2017-04-05T05:08:54.034Z,1023.2
2017-04-05T05:09:56.871Z,1023.2
2017-04-05T05:10:59.574Z,1023.1
2017-04-05T05:12:01.914Z,1023.2
2017-04-05T05:13:05.055Z,1023.2
2017-04-05T05:14:07.254Z,1023.1
2017-04-05T05:15:09.954Z,1023.2
2017-04-05T05:16:12.658Z,1023.2
2017-04-05T05:17:14.993Z,1023.2
2017-04-05T05:18:18.082Z,1023.2
2017-04-05T05:19:20.419Z,1023.2
2017-04-05T05:20:22.759Z,1023.2
2017-04-05T05:21:25.604Z,1023.1
2017-04-05T05:22:28.379Z,1023.1
2017-04-05T05:23:30.971Z,1023.1
2017-04-05T05:24:33.352Z,1023.1
2017-04-05T05:25:36.190Z,1023.1
2017-04-05T05:26:38.528Z,1023.2
2017-04-05T05:27:41.378Z,1023.2
2017-04-05T05:28:44.475Z,1023.1
2017-04-05T05:30:49.220Z,1023.1
2017-04-05T05:31:52.062Z,1023.1
2017-04-05T05:32:54.400Z,1023.1
2017-04-05T05:33:57.491Z,1023.1
2017-04-05T05:34:59.828Z,1023.2
2017-04-05T05:36:02.665Z,1023.1
2017-04-05T05:37:04.996Z,1023.1
2017-04-05T05:38:07.837Z,1023.1
2017-04-05T05:39:10.426Z,1023.2
2017-04-05T05:40:13.135Z,1023.1
2017-04-05T05:41:15.467Z,1023.1
2017-04-05T05:42:18.175Z,1023.1
2017-04-05T05:43:21.020Z,1023.1
2017-04-05T05:45:26.514Z,1023.2
2017-04-05T05:46:28.855Z,1023.2
2017-04-05T05:47:31.191Z,1023.2
2017-04-05T05:48:34.027Z,1023.2
2017-04-05T05:49:36.875Z,1023.1
2017-04-05T05:50:39.507Z,1023.1
2017-04-05T05:51:41.710Z,1023.1
2017-04-05T05:52:44.550Z,1023.1
2017-04-05T05:53:47.392Z,1023.2
2017-04-05T05:54:49.725Z,1023.1
2017-04-05T05:55:52.815Z,1023.2
2017-04-05T05:56:55.152Z,1023.1
2017-04-05T05:57:57.493Z,1023.2
2017-04-05T05:59:00.331Z,1023.1
2017-04-05T06:00:03.038Z,1023.2
2017-04-05T06:01:05.856Z,1023.2
2017-04-05T06:02:08.059Z,1023.2
2017-04-05T06:02:38.690Z,1023.2
2017-04-05T06:03:10.831Z,1023.1
2017-04-05T06:04:13.670Z,1023.1
2017-04-05T06:05:16.008Z,1023.2
2017-04-05T06:06:19.161Z,1023.2
2017-04-05T06:07:21.500Z,1023.2
2017-04-05T06:08:24.209Z,1023.1
2017-04-05T06:09:26.551Z,1023.1
2017-04-05T06:10:29.395Z,1023.1
2017-04-05T06:12:34.889Z,1023.2
2017-04-05T06:13:37.228Z,1023.1
2017-04-05T06:14:39.570Z,1023.1
2017-04-05T06:15:42.277Z,1023.1
2017-04-05T06:16:45.160Z,1023.1
2017-04-05T06:17:47.748Z,1023.2
2017-04-05T06:18:50.593Z,1023.2
2017-04-05T06:19:52.928Z,1023.2
2017-04-05T06:20:55.694Z,1023.2
2017-04-05T06:21:58.030Z,1023.2
2017-04-05T06:23:01.122Z,1023.2
2017-04-05T06:24:03.461Z,1023.2
2017-04-05T06:25:06.305Z,1023.2
2017-04-05T06:26:08.645Z,1023.2
2017-04-05T06:27:11.345Z,1023.2
2017-04-05T06:28:14.524Z,1023.2
2017-04-05T06:29:16.722Z,1023.1
2017-04-05T06:30:19.622Z,1023.1
2017-04-05T06:31:21.965Z,1023.1
2017-04-05T06:32:24.812Z,1023.1
2017-04-05T06:33:27.404Z,1023.1
2017-04-05T06:34:29.738Z,1023.1
2017-04-05T06:35:32.574Z,1023.1
2017-04-05T06:36:35.416Z,1023.1
2017-04-05T06:37:38.135Z,1023.2
2017-04-05T06:38:40.726Z,1023.2
2017-04-05T06:39:43.060Z,1023.2
2017-04-05T06:40:45.902Z,1023.2
2017-04-05T06:41:48.239Z,1023.2
2017-04-05T06:42:51.082Z,1023.1
2017-04-05T06:43:54.173Z,1023.1
2017-04-05T06:44:56.507Z,1023.1
2017-04-05T06:45:58.845Z,1023.1
2017-04-05T06:47:01.551Z,1023.1
2017-04-05T06:48:04.387Z,1023.1
2017-04-05T06:49:07.482Z,1023.1
2017-04-05T06:51:12.254Z,1023.1
2017-04-05T06:52:14.964Z,1023.1
2017-04-05T06:53:17.843Z,1023.1
2017-04-05T06:54:20.432Z,1023.2
2017-04-05T06:55:22.783Z,1023.2
2017-04-05T06:56:25.623Z,1023.1
2017-04-05T06:57:28.471Z,1023.1
2017-04-05T06:58:30.808Z,1023.1
2017-04-05T06:59:33.896Z,1023.2
2017-04-05T07:00:36.237Z,1023.1
2017-04-05T07:01:39.082Z,1023.2
2017-04-05T07:02:41.423Z,1023.2
2017-04-05T07:03:44.264Z,1023.2
2017-04-05T07:04:46.847Z,1023.3
2017-04-05T07:05:49.689Z,1023.3
2017-04-05T07:06:52.026Z,1023.2
2017-04-05T07:07:54.864Z,1023.3
2017-04-05T07:08:57.568Z,1023.3
2017-04-05T07:10:00.154Z,1023.3
2017-04-05T07:11:02.734Z,1023.3
2017-04-05T07:12:05.575Z,1023.2
2017-04-05T07:13:07.911Z,1023.2
2017-04-05T07:14:10.755Z,1023.2
2017-04-05T07:15:13.847Z,1023.2
2017-04-05T07:16:16.049Z,1023.2
2017-04-05T07:17:18.884Z,1023.2
2017-04-05T07:18:21.224Z,1023.3
2017-04-05T07:19:23.857Z,1023.2
2017-04-05T07:20:26.948Z,1023.2
2017-04-05T07:22:32.195Z,1023.2
2017-04-05T07:23:34.539Z,1023.2
2017-04-05T07:24:37.384Z,1023.2
2017-04-05T07:25:40.476Z,1023.2
2017-04-05T07:26:42.815Z,1023.2
2017-04-05T07:27:45.658Z,1023.2
2017-04-05T07:28:47.996Z,1023.2
2017-04-05T07:29:50.840Z,1023.2
2017-04-05T07:30:53.935Z,1023.2
2017-04-05T07:31:56.273Z,1023.2
2017-04-05T07:32:58.610Z,1023.2
2017-04-05T07:34:01.458Z,1023.2
2017-04-05T07:36:07.010Z,1023.2
2017-04-05T07:37:09.581Z,1023.2
2017-04-05T07:38:11.916Z,1023.2
2017-04-05T07:39:14.624Z,1023.3
2017-04-05T07:40:17.467Z,1023.2
2017-04-05T07:41:20.559Z,1023.3
2017-04-05T07:42:22.767Z,1023.3
2017-04-05T07:43:25.477Z,1023.3
2017-04-05T07:44:28.317Z,1023.2
2017-04-05T07:45:30.654Z,1023.3
2017-04-05T07:46:33.800Z,1023.3
2017-04-05T07:47:36.004Z,1023.2
2017-04-05T07:48:38.845Z,1023.3
2017-04-05T07:49:41.741Z,1023.3
2017-04-05T07:50:44.086Z,1023.2
2017-04-05T07:51:47.175Z,1023.2
2017-04-05T07:52:49.516Z,1023.2
2017-04-05T07:53:52.356Z,1023.2
2017-04-05T07:54:55.197Z,1023.2
2017-04-05T07:55:57.538Z,1023.2
2017-04-05T07:57:00.497Z,1023.2
2017-04-05T07:59:05.744Z,1023.1
2017-04-05T08:00:08.588Z,1023.2
2017-04-05T08:01:10.928Z,1023.1
2017-04-05T08:02:14.021Z,1023.1
2017-04-05T08:03:16.359Z,1023.1
2017-04-05T08:04:19.062Z,1023.1
2017-04-05T08:05:21.906Z,1023.1
2017-04-05T08:06:24.244Z,1023.1
2017-04-05T08:07:27.339Z,1023.1
2017-04-05T08:08:30.051Z,1023
2017-04-05T08:09:32.387Z,1023
2017-04-05T08:10:35.093Z,1023
2017-04-05T08:11:37.936Z,1023.1
2017-04-05T08:12:41.025Z,1023.1
2017-04-05T08:13:43.363Z,1023
2017-04-05T08:14:45.705Z,1023
2017-04-05T08:15:48.557Z,1023.1
2017-04-05T08:16:51.260Z,1023.1
2017-04-05T08:17:54.352Z,1023.1
2017-04-05T08:18:56.692Z,1023.1
2017-04-05T08:19:59.266Z,1023.1
2017-04-05T08:21:02.107Z,1023.1
2017-04-05T08:22:04.471Z,1023.1
2017-04-05T08:23:07.567Z,1023.2
2017-04-05T08:24:09.906Z,1023.1
2017-04-05T08:25:12.751Z,1023.2
2017-04-05T08:26:15.595Z,1023.1
2017-04-05T08:27:18.299Z,1023.1
2017-04-05T08:28:20.887Z,1023.1
2017-04-05T08:29:23.286Z,1023.1
2017-04-05T08:30:26.122Z,1023.1
2017-04-05T08:31:28.967Z,1023.1
2017-04-05T08:32:31.810Z,1023.1
2017-04-05T08:33:34.444Z,1023.1
2017-04-05T08:34:36.778Z,1023.1
2017-04-05T08:35:39.486Z,1023.1
2017-04-05T08:36:42.327Z,1023.2
2017-04-05T08:37:45.191Z,1023.2
2017-04-05T08:38:47.783Z,1023.3
2017-04-05T08:39:50.625Z,1023.2
2017-04-05T08:40:52.965Z,1023.2
2017-04-05T08:41:55.811Z,1023.2
2017-04-05T08:42:58.651Z,1023.2
2017-04-05T08:44:01.247Z,1023.2
2017-04-05T08:45:04.102Z,1023.2
2017-04-05T08:46:06.442Z,1023.2
2017-04-05T08:47:09.284Z,1023.3
2017-04-05T08:49:14.788Z,1023.2
2017-04-05T08:50:17.135Z,1023.2
2017-04-05T08:51:19.984Z,1023.2
2017-04-05T08:52:22.690Z,1023.2
2017-04-05T08:53:25.531Z,1023.2
2017-04-05T08:54:28.128Z,1023.2
2017-04-05T08:55:30.970Z,1023.2
2017-04-05T08:56:33.316Z,1023.2
2017-04-05T08:57:36.157Z,1023.2
2017-04-05T08:58:38.864Z,1023.2
2017-04-05T08:59:41.831Z,1023.2
2017-04-05T09:00:44.167Z,1023.2
2017-04-05T09:01:46.874Z,1023.2
2017-04-05T09:02:49.717Z,1023.2
2017-04-05T09:03:52.057Z,1023.2
2017-04-05T09:04:55.154Z,1023.2
2017-04-05T09:05:57.863Z,1023.2
2017-04-05T09:07:00.204Z,1023.2
2017-04-05T09:08:03.052Z,1023.2
2017-04-05T09:09:05.900Z,1023.2
2017-04-05T09:10:08.493Z,1023.2
2017-04-05T09:11:11.336Z,1023.2
2017-04-05T09:12:13.676Z,1023.2
2017-04-05T09:13:16.521Z,1023.2
2017-04-05T09:14:19.368Z,1023.2
2017-04-05T09:15:21.961Z,1023.2
2017-04-05T09:16:24.662Z,1023.2
2017-04-05T09:17:27.003Z,1023.2
2017-04-05T09:19:32.757Z,1023.1
2017-04-05T09:20:35.353Z,1023.2
2017-04-05T09:21:38.066Z,1023.1
2017-04-05T09:22:40.411Z,1023.2
2017-04-05T09:23:43.260Z,1023.1
2017-04-05T09:24:46.106Z,1023.2
2017-04-05T09:25:49.200Z,1023.1
2017-04-05T09:27:53.948Z,1023.2
2017-04-05T09:28:56.655Z,1023.1
2017-04-05T09:29:59.509Z,1023.1
2017-04-05T09:31:02.164Z,1023.1
2017-04-05T09:32:05.062Z,1023.1
2017-04-05T09:33:07.263Z,1023.1
2017-04-05T09:34:10.107Z,1023.2
2017-04-05T09:35:12.995Z,1023.1
2017-04-05T09:36:15.643Z,1023.1
2017-04-05T09:37:18.486Z,1023.1
2017-04-05T09:38:20.823Z,1023.1
2017-04-05T09:39:23.684Z,1023.1
2017-04-05T09:40:26.528Z,1023.1
2017-04-05T09:41:29.113Z,1023.1
2017-04-05T09:42:31.452Z,1023.1
2017-04-05T09:43:34.291Z,1023
2017-04-05T09:44:37.132Z,1023
2017-04-05T09:45:39.973Z,1023
2017-04-05T09:46:42.561Z,1023
2017-04-05T09:47:44.895Z,1022.9
2017-04-05T09:48:47.964Z,1022.9
2017-04-05T09:49:50.298Z,1022.9
2017-04-05T09:50:53.191Z,1022.8
2017-04-05T09:51:56.329Z,1022.9
2017-04-05T09:52:58.682Z,1022.9
2017-04-05T09:54:01.524Z,1022.9
2017-04-05T09:55:03.731Z,1022.9
2017-04-05T09:56:06.579Z,1022.8
2017-04-05T09:57:09.674Z,1022.9
2017-04-05T09:58:12.012Z,1022.9
2017-04-05T09:59:14.894Z,1022.8
2017-04-05T10:01:20.203Z,1022.8
2017-04-05T10:02:23.049Z,1022.8
2017-04-05T10:03:25.389Z,1022.7
2017-04-05T10:04:28.242Z,1022.7
2017-04-05T10:05:31.094Z,1022.8
2017-04-05T10:06:33.435Z,1022.8
2017-04-05T10:07:36.526Z,1022.7
2017-04-05T10:08:38.921Z,1022.7
2017-04-05T10:09:41.758Z,1022.7
2017-04-05T10:10:44.597Z,1022.6
2017-04-05T10:11:47.305Z,1022.6
2017-04-05T10:12:50.264Z,1022.6
2017-04-05T10:13:52.475Z,1022.6
2017-04-05T10:15:57.724Z,1022.5
2017-04-05T10:17:00.640Z,1022.5
2017-04-05T10:18:03.736Z,1022.5
2017-04-05T10:19:06.078Z,1022.5
2017-04-05T10:20:08.417Z,1022.5
2017-04-05T10:21:11.263Z,1022.5
2017-04-05T10:22:14.104Z,1022.4
2017-04-05T10:23:17.251Z,1022.4
2017-04-05T10:24:19.643Z,1022.4
2017-04-05T10:25:21.987Z,1022.4
2017-04-05T10:26:24.692Z,1022.4
2017-04-05T10:27:27.532Z,1022.4
2017-04-05T10:28:30.686Z,1022.4
2017-04-05T10:29:33.028Z,1022.4
2017-04-05T10:30:35.365Z,1022.4
2017-04-05T10:31:38.201Z,1022.4
2017-04-05T10:32:41.047Z,1022.4
2017-04-05T10:33:43.878Z,1022.4
2017-04-05T10:34:46.583Z,1022.4
2017-04-05T10:35:48.921Z,1022.4
2017-04-05T10:38:57.327Z,1022.4
2017-04-05T10:39:59.657Z,1022.4
2017-04-05T10:41:02.493Z,1022.4
2017-04-05T10:42:05.335Z,1022.4
2017-04-05T10:43:08.049Z,1022.5
2017-04-05T10:44:11.146Z,1022.4
2017-04-05T10:45:13.487Z,1022.4
2017-04-05T10:46:16.059Z,1022.4
2017-04-05T10:47:18.962Z,1022.4
2017-04-05T10:48:21.299Z,1022.4
2017-04-05T10:49:24.392Z,1022.3
2017-04-05T10:50:26.730Z,1022.4
2017-04-05T10:51:29.574Z,1022.4
2017-04-05T10:52:32.278Z,1022.5
2017-04-05T10:53:35.123Z,1022.4
2017-04-05T10:54:38.266Z,1022.5
2017-04-05T10:55:40.602Z,1022.4
2017-04-05T10:56:42.944Z,1022.4
2017-04-05T10:57:45.787Z,1022.4
2017-04-05T10:58:48.623Z,1022.4
2017-04-05T11:00:54.126Z,1022.4
2017-04-05T11:01:56.834Z,1022.4
2017-04-05T11:02:59.175Z,1022.3
2017-04-05T11:04:02.016Z,1022.3
2017-04-05T11:05:04.860Z,1022.3
2017-04-05T11:06:07.453Z,1022.2
2017-04-05T11:07:10.158Z,1022.3
2017-04-05T11:08:12.997Z,1022.3
2017-04-05T11:09:15.334Z,1022.3
2017-04-05T11:10:18.042Z,1022.3
2017-04-05T11:11:21.132Z,1022.3
2017-04-05T11:12:23.472Z,1022.2
2017-04-05T11:13:26.367Z,1022.3
2017-04-05T11:14:29.209Z,1022.3
2017-04-05T11:15:31.911Z,1022.3
2017-04-05T11:16:34.597Z,1022.3
2017-04-05T11:17:37.304Z,1022.3
2017-04-05T11:18:39.639Z,1022.3
2017-04-05T11:19:42.481Z,1022.3
2017-04-05T11:20:45.320Z,1022.3
2017-04-05T11:21:48.413Z,1022.2
2017-04-05T11:22:50.755Z,1022.2
2017-04-05T11:23:53.597Z,1022.2
2017-04-05T11:24:55.943Z,1022.2
2017-04-05T11:25:58.658Z,1022.2
2017-04-05T11:27:01.616Z,1022.2
2017-04-05T11:28:04.458Z,1022.2
2017-04-05T11:29:06.807Z,1022.2
2017-04-05T11:30:09.652Z,1022.2
2017-04-05T11:31:12.495Z,1022.2
2017-04-05T11:32:15.089Z,1022
2017-04-05T11:33:17.931Z,1022
2017-04-05T11:34:20.637Z,1022
2017-04-05T11:35:22.975Z,1022
2017-04-05T11:36:25.860Z,1022
2017-04-05T11:37:29.010Z,1022
2017-04-05T11:38:31.411Z,1022
2017-04-05T11:39:34.117Z,1022
2017-04-05T11:40:36.457Z,1022
2017-04-05T11:41:39.300Z,1022
2017-04-05T11:42:42.397Z,1022
2017-04-05T11:43:44.602Z,1021.9
2017-04-05T11:44:47.449Z,1021.9
2017-04-05T11:45:50.290Z,1021.9
2017-04-05T11:46:52.994Z,1021.9
2017-04-05T11:47:56.087Z,1021.9
2017-04-05T11:48:58.428Z,1021.9
2017-04-05T11:50:00.871Z,1021.9
2017-04-05T11:51:03.723Z,1021.9
2017-04-05T11:52:06.562Z,1021.9
2017-04-05T11:53:09.655Z,1021.8
2017-04-05T11:55:14.423Z,1021.9
2017-04-05T11:56:17.363Z,1021.9
2017-04-05T11:57:20.072Z,1021.9
2017-04-05T11:58:23.214Z,1021.8
2017-04-05T11:59:25.558Z,1021.8
2017-04-05T12:00:27.927Z,1021.8
2017-04-05T12:01:30.769Z,1021.8
2017-04-05T12:02:33.632Z,1021.8
2017-04-05T12:03:36.275Z,1021.8
2017-04-05T12:04:39.113Z,1021.8
2017-04-05T12:05:41.452Z,1021.8
2017-04-05T12:06:44.223Z,1021.8
2017-04-05T12:07:47.065Z,1021.8
2017-04-05T12:08:50.079Z,1021.8
2017-04-05T12:09:52.282Z,1021.8
2017-04-05T12:10:55.118Z,1021.7
2017-04-05T12:11:57.689Z,1021.8
2017-04-05T12:13:00.530Z,1021.8
2017-04-05T12:14:03.687Z,1021.7
2017-04-05T12:15:06.026Z,1021.7
2017-04-05T12:16:08.744Z,1021.7
2017-04-05T12:17:11.089Z,1021.7
2017-04-05T12:18:13.801Z,1021.7
2017-04-05T12:20:19.802Z,1021.7
2017-04-05T12:21:22.003Z,1021.7
2017-04-05T12:22:24.706Z,1021.7
2017-04-05T12:23:27.551Z,1021.7
2017-04-05T12:24:30.259Z,1021.6
2017-04-05T12:25:33.401Z,1021.6
2017-04-05T12:26:35.604Z,1021.6
2017-04-05T12:27:38.317Z,1021.6
2017-04-05T12:28:41.023Z,1021.5
2017-04-05T12:29:43.783Z,1021.6
2017-04-05T12:30:46.947Z,1021.6
2017-04-05T12:31:49.270Z,1021.5
2017-04-05T12:32:52.112Z,1021.6
2017-04-05T12:33:54.455Z,1021.6
2017-04-05T12:34:57.357Z,1021.6
2017-04-05T12:36:00.502Z,1021.6
2017-04-05T12:37:02.838Z,1021.6
2017-04-05T12:38:05.542Z,1021.6
2017-04-05T12:39:08.383Z,1021.6
2017-04-05T12:40:10.728Z,1021.6
2017-04-05T12:41:13.734Z,1021.5
2017-04-05T12:42:16.073Z,1021.5
2017-04-05T12:45:24.324Z,1021.5
2017-04-05T12:46:27.418Z,1021.5
2017-04-05T12:47:29.768Z,1021.4
2017-04-05T12:48:32.611Z,1021.4
2017-04-05T12:49:35.184Z,1021.4
2017-04-05T12:50:38.024Z,1021.4
2017-04-05T12:51:41.120Z,1021.3
2017-04-05T12:52:43.515Z,1021.5
2017-04-05T12:53:45.913Z,1021.5
2017-04-05T12:54:48.754Z,1021.4
2017-04-05T12:55:51.592Z,1021.4
2017-04-05T12:56:54.554Z,1021.3
2017-04-05T12:57:56.758Z,1021.3
2017-04-05T12:58:59.598Z,1021.3
2017-04-05T13:00:02.351Z,1021.3
2017-04-05T13:01:04.928Z,1021.3
2017-04-05T13:02:08.025Z,1021.2
2017-04-05T13:03:10.358Z,1021.1
2017-04-05T13:04:13.063Z,1021.2
2017-04-05T13:05:15.902Z,1021.1
2017-04-05T13:06:18.606Z,1021.1
2017-04-05T13:07:21.697Z,1021.1
2017-04-05T13:08:24.037Z,1021.2
2017-04-05T13:09:26.877Z,1021.1
2017-04-05T13:10:29.583Z,1021.1
2017-04-05T13:11:31.977Z,1021.1
2017-04-05T13:13:37.852Z,1021
2017-04-05T13:14:40.201Z,1021
2017-04-05T13:15:43.041Z,1021
2017-04-05T13:16:45.902Z,1021
2017-04-05T13:17:48.285Z,1021
2017-04-05T13:18:51.433Z,1021
2017-04-05T13:19:53.766Z,1021
2017-04-05T13:20:56.609Z,1020.9
2017-04-05T13:21:59.450Z,1020.9
2017-04-05T13:23:01.784Z,1020.9
2017-04-05T13:24:04.935Z,1020.9
2017-04-05T13:25:07.205Z,1020.9
2017-04-05T13:26:10.050Z,1020.9
2017-04-05T13:27:12.895Z,1020.9
2017-04-05T13:28:15.735Z,1020.9
2017-04-05T13:29:18.327Z,1020.9
2017-04-05T13:30:21.165Z,1020.9
2017-04-05T13:31:23.873Z,1020.9
2017-04-05T13:32:26.718Z,1020.8
2017-04-05T13:33:29.057Z,1020.9
2017-04-05T13:34:32.013Z,1020.8
2017-04-05T13:35:34.585Z,1020.8
2017-04-05T13:36:37.288Z,1020.8
2017-04-05T13:37:40.126Z,1020.8
2017-04-05T13:38:42.889Z,1020.8
2017-04-05T13:39:45.844Z,1020.7
2017-04-05T13:40:48.188Z,1020.8
2017-04-05T13:41:51.026Z,1020.8
2017-04-05T13:42:53.863Z,1020.7
2017-04-05T13:43:56.201Z,1020.8
2017-04-05T13:44:59.166Z,1020.7
2017-04-05T13:46:02.010Z,1020.7
2017-04-05T13:47:04.357Z,1020.7
2017-04-05T13:48:07.062Z,1020.7
2017-04-05T13:49:09.767Z,1020.7
2017-04-05T13:50:12.854Z,1020.7
2017-04-05T13:51:15.194Z,1020.7
2017-04-05T13:52:17.938Z,1020.7
2017-04-05T13:53:20.777Z,1020.6
2017-04-05T13:54:23.622Z,1020.7
2017-04-05T13:55:26.717Z,1020.6
2017-04-05T13:56:29.057Z,1020.6
2017-04-05T13:57:31.899Z,1020.6
2017-04-05T13:58:34.235Z,1020.6
2017-04-05T13:59:37.077Z,1020.6
2017-04-05T14:00:40.173Z,1020.6
2017-04-05T14:01:42.511Z,1020.6
2017-04-05T14:02:45.352Z,1020.5
2017-04-05T14:03:48.184Z,1020.5
2017-04-05T14:04:50.890Z,1020.5
2017-04-05T14:05:53.489Z,1020.4
2017-04-05T14:06:56.334Z,1020.4
2017-04-05T14:07:58.675Z,1020.4
2017-04-05T14:09:01.513Z,1020.4
2017-04-05T14:10:04.358Z,1020.4
2017-04-05T14:11:07.501Z,1020.3
2017-04-05T14:13:12.475Z,1020.3
2017-04-05T14:14:15.316Z,1020.3
2017-04-05T14:15:18.156Z,1020.3
2017-04-05T14:16:20.745Z,1020.3
2017-04-05T14:17:23.454Z,1020.2
2017-04-05T14:18:26.301Z,1020.3
2017-04-05T14:19:28.640Z,1020.3
2017-04-05T14:20:31.352Z,1020.3
2017-04-05T14:21:34.497Z,1020.3
2017-04-05T14:22:36.835Z,1020.3
2017-04-05T14:23:39.468Z,1020.3
2017-04-05T14:24:42.309Z,1020.2
2017-04-05T14:25:45.149Z,1020.2
2017-04-05T14:26:48.253Z,1020.1
2017-04-05T14:27:50.460Z,1020.2
2017-04-05T14:28:53.297Z,1020.1
2017-04-05T14:29:56.142Z,1020.1
2017-04-05T14:30:58.849Z,1020.1
2017-04-05T14:32:01.953Z,1020.1
2017-04-05T14:33:04.320Z,1020.1
2017-04-05T14:34:07.160Z,1020
2017-04-05T14:35:09.868Z,1020
2017-04-05T14:36:12.210Z,1020
2017-04-05T14:37:15.356Z,1020.1
2017-04-05T14:38:17.687Z,1020.1
2017-04-05T14:39:20.527Z,1020
2017-04-05T14:40:23.374Z,1020
2017-04-05T14:41:26.216Z,1020
2017-04-05T14:42:29.176Z,1020
2017-04-05T14:43:31.511Z,1020
2017-04-05T14:44:34.355Z,1020